Time;durP1;ratioP1;P1;durP2;ratioP2;P2;SDS_P1;SDS_P2;PMS_P1;PMS_P2;Temp;Humidity;BMP_temperature;BMP_pressure;BME280_temperature;BME280_humidity;BME280_pressure;Samples;Min_cycle;Max_cycle;Signal;HPM_P1;HPM_P2
2022/07/12 00:02:18;;;;;;;4.20;3.50;;;;;;;;;;5092937;28;20484;-65
2022/07/12 00:04:46;;;;;;;4.60;4.20;;;;;;;;;;5092956;28;20439;-65
2022/07/12 00:07:13;;;;;;;3.67;3.40;;;;;;;;;;5093497;28;20528;-65
2022/07/12 00:09:40;;;;;;;3.63;3.43;;;;;;;;;;5093855;28;20455;-65
2022/07/12 00:12:09;;;;;;;3.97;3.57;;;;;;;;;;5093188;28;20440;-65
2022/07/12 00:14:36;;;;;;;3.97;3.67;;;;;;;;;;5095853;28;20568;-65
2022/07/12 00:17:04;;;;;;;3.80;3.60;;;;;;;;;;5096669;28;20450;-65
2022/07/12 00:19:32;;;;;;;3.73;3.43;;;;;;;;;;5096987;28;20448;-65
2022/07/12 00:21:59;;;;;;;4.80;4.30;;;;;;;;;;5096575;28;20487;-65
2022/07/12 00:24:27;;;;;;;4.33;4.03;;;;;;;;;;5097201;28;20801;-65
2022/07/12 00:26:54;;;;;;;3.80;3.50;;;;;;;;;;5096621;28;20568;-65
2022/07/12 00:29:23;;;;;;;3.97;3.67;;;;;;;;;;5097086;28;20466;-65
2022/07/12 00:31:50;;;;;;;4.43;4.13;;;;;;;;;;5097041;28;20913;-65
2022/07/12 00:34:17;;;;;;;4.57;4.27;;;;;;;;;;5096453;28;20527;-65
2022/07/12 00:36:44;;;;;;;4.60;4.20;;;;;;;;;;5096970;28;20476;-65
2022/07/12 00:39:11;;;;;;;4.20;3.90;;;;;;;;;;5096617;28;20447;-65
2022/07/12 00:41:39;;;;;;;4.33;4.03;;;;;;;;;;5096729;28;20493;-65
2022/07/12 00:44:06;;;;;;;4.03;3.73;;;;;;;;;;5096625;28;20943;-65
2022/07/12 00:46:34;;;;;;;4.20;3.90;;;;;;;;;;5096425;28;20803;-65
2022/07/12 00:49:02;;;;;;;4.20;3.90;;;;;;;;;;5096095;28;20444;-65
2022/07/12 00:51:30;;;;;;;4.30;4.00;;;;;;;;;;5096958;28;20890;-65
2022/07/12 00:53:58;;;;;;;5.57;4.13;;;;;;;;;;5096240;28;20956;-65
2022/07/12 00:56:26;;;;;;;5.00;4.50;;;;;;;;;;5096363;28;20791;-65
2022/07/12 00:58:53;;;;;;;4.60;4.20;;;;;;;;;;5096331;28;20539;-65
2022/07/12 01:01:20;;;;;;;4.63;4.33;;;;;;;;;;5095890;28;20952;-65
2022/07/12 01:03:49;;;;;;;4.57;4.17;;;;;;;;;;5095793;28;21048;-65
2022/07/12 01:06:17;;;;;;;4.77;4.37;;;;;;;;;;5096053;28;20478;-65
2022/07/12 01:08:44;;;;;;;4.57;4.27;;;;;;;;;;5095937;28;20488;-65
2022/07/12 01:11:11;;;;;;;4.60;4.20;;;;;;;;;;5095977;28;20519;-65
2022/07/12 01:13:38;;;;;;;4.20;3.80;;;;;;;;;;5095562;28;20478;-65
2022/07/12 01:16:07;;;;;;;4.47;4.10;;;;;;;;;;5095633;28;20539;-65
2022/07/12 01:18:34;;;;;;;4.83;4.43;;;;;;;;;;5095775;28;20507;-65
2022/07/12 01:21:05;;;;;;;29.80;7.67;;;;;;;;;;5095866;28;20441;-65
2022/07/12 01:23:34;;;;;;;12.00;6.10;;;;;;;;;;5095775;28;20785;-64
2022/07/12 01:26:02;;;;;;;9.23;4.77;;;;;;;;;;5094953;28;20526;-65
2022/07/12 01:28:29;;;;;;;26.00;7.50;;;;;;;;;;5095626;28;20515;-65
2022/07/12 01:30:56;;;;;;;32.30;10.40;;;;;;;;;;5095685;28;20529;-65
2022/07/12 01:33:23;;;;;;;9.30;6.30;;;;;;;;;;5095564;28;20805;-65
2022/07/12 01:35:51;;;;;;;15.97;6.50;;;;;;;;;;5095782;28;20439;-65
2022/07/12 01:38:18;;;;;;;15.80;7.67;;;;;;;;;;5095411;28;20456;-65
2022/07/12 01:40:47;;;;;;;13.27;6.17;;;;;;;;;;5095501;28;20442;-64
2022/07/12 01:43:17;;;;;;;10.80;5.90;;;;;;;;;;5095232;28;20449;-65
2022/07/12 01:45:44;;;;;;;5.00;4.40;;;;;;;;;;5095287;28;20476;-64
2022/07/12 01:48:12;;;;;;;5.77;4.80;;;;;;;;;;5095688;28;20438;-65
2022/07/12 01:50:39;;;;;;;4.80;4.40;;;;;;;;;;5095010;28;20540;-66
2022/07/12 01:53:07;;;;;;;5.70;5.07;;;;;;;;;;5095132;28;20532;-65
2022/07/12 01:55:35;;;;;;;5.50;5.00;;;;;;;;;;5094905;28;20451;-65
2022/07/12 01:58:03;;;;;;;5.03;4.63;;;;;;;;;;5095044;28;20468;-65
2022/07/12 02:00:31;;;;;;;8.07;5.17;;;;;;;;;;5095038;28;20911;-65
2022/07/12 02:02:58;;;;;;;4.90;4.40;;;;;;;;;;5094992;28;20537;-65
2022/07/12 02:05:25;;;;;;;6.40;4.63;;;;;;;;;;5094612;28;20977;-65
2022/07/12 02:07:53;;;;;;;5.17;4.70;;;;;;;;;;5094899;28;20985;-65
2022/07/12 02:10:20;;;;;;;5.00;4.60;;;;;;;;;;5094810;28;20458;-64
2022/07/12 02:12:47;;;;;;;5.10;4.20;;;;;;;;;;5094852;28;20468;-65
2022/07/12 02:15:16;;;;;;;4.93;4.53;;;;;;;;;;5095237;28;20482;-65
2022/07/12 02:17:43;;;;;;;5.37;4.87;;;;;;;;;;5094801;28;20471;-65
2022/07/12 02:20:12;;;;;;;4.40;4.10;;;;;;;;;;5094599;28;20528;-65
2022/07/12 02:22:40;;;;;;;5.13;4.73;;;;;;;;;;5094692;28;20915;-65
2022/07/12 02:25:07;;;;;;;4.87;4.47;;;;;;;;;;5094681;28;20540;-65
2022/07/12 02:27:34;;;;;;;4.70;4.30;;;;;;;;;;5094182;28;20482;-65
2022/07/12 02:30:02;;;;;;;4.13;3.83;;;;;;;;;;5094167;28;20533;-65
2022/07/12 02:32:30;;;;;;;4.33;4.03;;;;;;;;;;5094701;28;20451;-65
2022/07/12 02:34:58;;;;;;;4.50;4.20;;;;;;;;;;5094351;28;20526;-65
2022/07/12 02:37:25;;;;;;;4.47;4.07;;;;;;;;;;5093638;28;20870;-65
2022/07/12 02:40:52;;;;;;;4.57;4.17;;;;;;;;;;5094583;28;20528;-65
2022/07/12 02:42:40;;;;;;;4.20;3.87;;;;;;;;;;5094556;28;20412;-64
2022/07/12 02:45:07;;;;;;;4.57;4.20;;;;;;;;;;5094381;28;20445;-65
2022/07/12 02:47:39;;;;;;;4.40;4.10;;;;;;;;;;5093981;28;20483;-65
2022/07/12 02:50:06;;;;;;;4.33;3.93;;;;;;;;;;5094023;28;20448;-65
2022/07/12 02:52:34;;;;;;;4.40;4.10;;;;;;;;;;5093824;28;20455;-65
2022/07/12 02:55:01;;;;;;;4.00;3.70;;;;;;;;;;5094195;28;20805;-65
2022/07/12 02:57:28;;;;;;;4.53;4.13;;;;;;;;;;5093761;28;20980;-65
2022/07/12 02:59:55;;;;;;;5.60;4.37;;;;;;;;;;5093940;28;20443;-65
2022/07/12 03:02:22;;;;;;;4.67;4.20;;;;;;;;;;5093669;28;20523;-66
2022/07/12 03:04:51;;;;;;;4.57;4.17;;;;;;;;;;5093598;28;20980;-65
2022/07/12 03:07:18;;;;;;;4.57;4.17;;;;;;;;;;5093595;28;20999;-65
2022/07/12 03:09:45;;;;;;;4.67;4.27;;;;;;;;;;5093825;28;20533;-64
2022/07/12 03:12:13;;;;;;;4.63;4.30;;;;;;;;;;5094113;28;20446;-65
2022/07/12 03:14:40;;;;;;;5.53;4.60;;;;;;;;;;5094274;28;20469;-65
2022/07/12 03:17:07;;;;;;;4.77;4.37;;;;;;;;;;5093506;28;20528;-66
2022/07/12 03:19:34;;;;;;;5.00;4.60;;;;;;;;;;5093983;28;20535;-65
2022/07/12 03:22:03;;;;;;;4.70;4.40;;;;;;;;;;5093334;28;20472;-65
2022/07/12 03:24:30;;;;;;;4.80;4.40;;;;;;;;;;5093608;28;20559;-65
2022/07/12 03:26:58;;;;;;;5.80;5.30;;;;;;;;;;5093618;28;20512;-65
2022/07/12 03:29:25;;;;;;;5.80;5.40;;;;;;;;;;5093571;28;20446;-65
2022/07/12 03:31:52;;;;;;;6.07;5.53;;;;;;;;;;5093326;28;20530;-65
2022/07/12 03:34:19;;;;;;;6.60;6.10;;;;;;;;;;5093473;28;21106;-65
2022/07/12 03:36:47;;;;;;;6.90;6.20;;;;;;;;;;5093337;28;20442;-66
2022/07/12 03:39:15;;;;;;;6.60;6.10;;;;;;;;;;5093212;28;20944;-66
2022/07/12 03:41:42;;;;;;;6.30;5.80;;;;;;;;;;5094109;28;20433;-64
2022/07/12 03:44:10;;;;;;;6.43;6.03;;;;;;;;;;5094001;28;20445;-65
2022/07/12 03:46:37;;;;;;;6.77;6.07;;;;;;;;;;5092988;28;21060;-65
2022/07/12 03:49:05;;;;;;;6.40;5.90;;;;;;;;;;5097412;28;20524;-65
2022/07/12 03:51:32;;;;;;;6.80;6.30;;;;;;;;;;5097496;28;20436;-65
2022/07/12 03:53:59;;;;;;;6.80;6.30;;;;;;;;;;5086471;28;20450;-65
2022/07/12 03:59:13;;;;;;;6.50;5.97;;;;;;;;;;5076783;28;20401;-65
2022/07/12 04:01:40;;;;;;;6.47;5.87;;;;;;;;;;5077064;28;20442;-66
2022/07/12 04:04:07;;;;;;;7.00;6.50;;;;;;;;;;5076877;28;20441;-66
2022/07/12 04:06:34;;;;;;;7.13;6.53;;;;;;;;;;5076885;28;20483;-65
2022/07/12 04:09:01;;;;;;;6.90;6.40;;;;;;;;;;5076777;28;20444;-65
2022/07/12 04:11:30;;;;;;;7.77;7.17;;;;;;;;;;5076770;28;20452;-66
2022/07/12 04:13:57;;;;;;;9.00;8.20;;;;;;;;;;5077660;28;20479;-65
2022/07/12 04:16:24;;;;;;;9.37;8.50;;;;;;;;;;5096952;28;20445;-65
2022/07/12 04:18:51;;;;;;;7.50;6.90;;;;;;;;;;5096615;28;20429;-65
2022/07/12 04:21:19;;;;;;;8.30;7.60;;;;;;;;;;5096780;28;20443;-65
2022/07/12 04:23:46;;;;;;;8.30;7.60;;;;;;;;;;5096770;28;20780;-65
2022/07/12 04:26:13;;;;;;;8.23;7.53;;;;;;;;;;5096514;28;20551;-65
2022/07/12 04:28:42;;;;;;;7.80;7.20;;;;;;;;;;5096477;28;20531;-65
2022/07/12 04:31:10;;;;;;;8.80;7.90;;;;;;;;;;5096584;28;20840;-65
2022/07/12 04:33:37;;;;;;;9.30;8.50;;;;;;;;;;5096640;28;20940;-65
2022/07/12 04:36:04;;;;;;;7.60;6.97;;;;;;;;;;5096733;28;20446;-64
2022/07/12 04:38:31;;;;;;;8.40;7.57;;;;;;;;;;5096684;28;20441;-65
2022/07/12 04:40:59;;;;;;;9.27;8.37;;;;;;;;;;5096093;28;20447;-65
2022/07/12 04:43:26;;;;;;;8.33;7.60;;;;;;;;;;5096091;28;20442;-65
2022/07/12 04:45:55;;;;;;;9.77;8.87;;;;;;;;;;5096494;28;20446;-65
2022/07/12 04:48:22;;;;;;;11.50;10.50;;;;;;;;;;5096337;28;20487;-66
2022/07/12 04:50:49;;;;;;;12.07;10.90;;;;;;;;;;5096177;28;20445;-65
2022/07/12 04:53:16;;;;;;;10.90;9.97;;;;;;;;;;5096122;28;20462;-65
2022/07/12 04:55:44;;;;;;;11.10;10.10;;;;;;;;;;5096362;28;20556;-65
2022/07/12 04:58:11;;;;;;;10.70;9.67;;;;;;;;;;5095915;28;20456;-65
2022/07/12 05:00:38;;;;;;;11.43;10.40;;;;;;;;;;5094964;28;20445;-66
2022/07/12 05:03:07;;;;;;;10.10;9.10;;;;;;;;;;5095928;28;20560;-66
2022/07/12 05:05:34;;;;;;;10.10;9.30;;;;;;;;;;5096041;28;20798;-66
2022/07/12 05:08:01;;;;;;;8.40;7.70;;;;;;;;;;5095956;28;20471;-65
2022/07/12 05:10:28;;;;;;;7.90;7.30;;;;;;;;;;5095702;28;20475;-65
2022/07/12 05:12:55;;;;;;;8.30;7.70;;;;;;;;;;5094934;28;20436;-66
2022/07/12 05:15:23;;;;;;;8.23;7.63;;;;;;;;;;5093796;28;20564;-67
2022/07/12 05:17:50;;;;;;;9.53;8.70;;;;;;;;;;5094961;28;20536;-66
2022/07/12 05:20:19;;;;;;;9.17;8.37;;;;;;;;;;5095354;28;20452;-67
2022/07/12 05:22:46;;;;;;;10.37;8.97;;;;;;;;;;5095543;28;20440;-64
2022/07/12 05:25:13;;;;;;;9.10;8.20;;;;;;;;;;5095417;28;20545;-64
2022/07/12 05:27:40;;;;;;;9.60;8.70;;;;;;;;;;5095688;28;20567;-64
2022/07/12 05:30:08;;;;;;;8.50;7.80;;;;;;;;;;5095343;28;20471;-64
2022/07/12 05:32:35;;;;;;;10.40;9.30;;;;;;;;;;5095276;28;20486;-69
2022/07/12 05:35:02;;;;;;;9.47;8.70;;;;;;;;;;5095496;28;20524;-64
2022/07/12 05:37:31;;;;;;;9.87;9.07;;;;;;;;;;5095352;28;20497;-64
2022/07/12 05:39:58;;;;;;;9.30;8.50;;;;;;;;;;5096001;28;20445;-64
2022/07/12 05:42:26;;;;;;;9.77;8.93;;;;;;;;;;5095366;28;20879;-64
2022/07/12 05:44:53;;;;;;;9.93;8.17;;;;;;;;;;5095443;28;20445;-64
2022/07/12 05:47:20;;;;;;;9.20;8.40;;;;;;;;;;5095180;28;20570;-64
2022/07/12 05:49:47;;;;;;;10.20;7.93;;;;;;;;;;5095494;28;20620;-64
2022/07/12 05:55:01;;;;;;;8.40;7.67;;;;;;;;;;5094959;28;20444;-64
2022/07/12 05:57:28;;;;;;;9.57;8.50;;;;;;;;;;5094773;28;20450;-64
2022/07/12 05:59:56;;;;;;;9.03;7.57;;;;;;;;;;5095397;28;20842;-64
2022/07/12 06:02:23;;;;;;;8.30;7.70;;;;;;;;;;5095059;28;20453;-64
2022/07/12 06:04:50;;;;;;;8.13;7.33;;;;;;;;;;5095036;28;20438;-64
2022/07/12 06:07:17;;;;;;;12.20;7.40;;;;;;;;;;5095288;28;20483;-64
2022/07/12 06:09:45;;;;;;;8.17;7.50;;;;;;;;;;5094926;28;20524;-65
2022/07/12 06:12:13;;;;;;;11.80;7.00;;;;;;;;;;5094511;28;20509;-65
2022/07/12 06:14:40;;;;;;;8.60;7.80;;;;;;;;;;5094807;28;20490;-64
2022/07/12 06:17:08;;;;;;;8.03;7.40;;;;;;;;;;5094422;28;20535;-64
2022/07/12 06:19:36;;;;;;;9.60;7.23;;;;;;;;;;5094516;28;20444;-64
2022/07/12 06:22:03;;;;;;;9.00;8.20;;;;;;;;;;5094616;28;20518;-64
2022/07/12 06:24:30;;;;;;;8.63;7.57;;;;;;;;;;5094705;28;20494;-64
2022/07/12 06:26:58;;;;;;;8.77;8.07;;;;;;;;;;5094483;28;20846;-65
2022/07/12 06:29:26;;;;;;;10.90;9.10;;;;;;;;;;5094830;28;20533;-64
2022/07/12 06:31:53;;;;;;;7.63;6.93;;;;;;;;;;5094113;28;20535;-65
2022/07/12 06:34:21;;;;;;;7.93;7.23;;;;;;;;;;5095177;28;20474;-64
2022/07/12 06:36:48;;;;;;;7.30;6.60;;;;;;;;;;5094581;28;20444;-65
2022/07/12 06:39:16;;;;;;;6.93;6.43;;;;;;;;;;5094434;28;20434;-64
2022/07/12 06:41:43;;;;;;;8.80;7.07;;;;;;;;;;5094059;28;20900;-65
2022/07/12 06:44:10;;;;;;;8.57;7.73;;;;;;;;;;5094281;28;20519;-65
2022/07/12 06:46:39;;;;;;;8.93;6.50;;;;;;;;;;5094300;28;20450;-65
2022/07/12 06:49:06;;;;;;;5.70;5.20;;;;;;;;;;5094158;28;20930;-64
2022/07/12 06:51:33;;;;;;;8.43;6.37;;;;;;;;;;5094211;28;20436;-64
2022/07/12 06:54:00;;;;;;;6.47;5.97;;;;;;;;;;5093934;28;20451;-64
2022/07/12 06:56:28;;;;;;;7.67;7.07;;;;;;;;;;5093677;28;20541;-64
2022/07/12 06:58:55;;;;;;;7.43;6.83;;;;;;;;;;5093939;28;20523;-65
2022/07/12 07:01:22;;;;;;;7.77;5.90;;;;;;;;;;5093914;28;20437;-64
2022/07/12 07:03:50;;;;;;;8.47;6.60;;;;;;;;;;5093589;28;20444;-64
2022/07/12 07:06:18;;;;;;;6.93;5.63;;;;;;;;;;5094476;28;20461;-64
2022/07/12 07:08:45;;;;;;;6.17;5.57;;;;;;;;;;5093869;28;20479;-64
2022/07/12 07:11:12;;;;;;;8.80;6.10;;;;;;;;;;5093604;28;20532;-64
2022/07/12 07:13:39;;;;;;;6.37;5.10;;;;;;;;;;5093558;28;20552;-64
2022/07/12 07:16:07;;;;;;;9.97;5.67;;;;;;;;;;5093750;28;20489;-64
2022/07/12 07:18:34;;;;;;;9.40;5.00;;;;;;;;;;5093390;28;20926;-64
2022/07/12 07:21:03;;;;;;;6.33;5.73;;;;;;;;;;5093457;28;20966;-64
2022/07/12 07:23:30;;;;;;;8.70;5.93;;;;;;;;;;5093175;28;20487;-64
2022/07/12 07:25:57;;;;;;;7.00;5.67;;;;;;;;;;5093235;28;20455;-64
2022/07/12 07:28:24;;;;;;;7.17;5.50;;;;;;;;;;5093156;28;20568;-64
2022/07/12 07:30:54;;;;;;;5.30;4.90;;;;;;;;;;5093369;28;20459;-64
2022/07/12 07:33:21;;;;;;;6.57;5.20;;;;;;;;;;5093535;28;21050;-64
2022/07/12 07:35:48;;;;;;;6.10;5.60;;;;;;;;;;5093675;28;20936;-64
2022/07/12 07:38:17;;;;;;;5.73;4.63;;;;;;;;;;5093755;28;20474;-64
2022/07/12 07:40:45;;;;;;;4.40;4.00;;;;;;;;;;5093523;28;20528;-64
2022/07/12 07:43:12;;;;;;;7.20;6.50;;;;;;;;;;5094007;28;20654;-64
2022/07/12 07:45:39;;;;;;;11.63;7.80;;;;;;;;;;5094316;28;20465;-64
2022/07/12 07:48:07;;;;;;;6.00;5.50;;;;;;;;;;5093601;28;20506;-64
2022/07/12 07:50:34;;;;;;;6.00;4.93;;;;;;;;;;5093726;28;20961;-67
2022/07/12 07:53:01;;;;;;;9.73;5.67;;;;;;;;;;5093354;28;20534;-64
2022/07/12 07:55:30;;;;;;;4.37;3.97;;;;;;;;;;5093700;28;20447;-64
2022/07/12 07:57:59;;;;;;;4.33;3.90;;;;;;;;;;5093347;28;20453;-65
2022/07/12 08:00:26;;;;;;;6.30;4.70;;;;;;;;;;5093077;28;20446;-65
2022/07/12 08:02:53;;;;;;;5.63;4.47;;;;;;;;;;5093072;28;21014;-65
2022/07/12 08:05:20;;;;;;;7.20;4.33;;;;;;;;;;5093394;28;20796;-64
2022/07/12 08:07:48;;;;;;;5.13;4.83;;;;;;;;;;5093290;28;20569;-64
2022/07/12 08:10:15;;;;;;;4.10;3.70;;;;;;;;;;5093177;28;20439;-63
2022/07/12 08:12:43;;;;;;;4.20;3.33;;;;;;;;;;5084779;28;20454;-64
2022/07/12 08:15:11;;;;;;;3.77;3.47;;;;;;;;;;5073048;28;20480;-64
2022/07/12 08:17:39;;;;;;;4.63;4.20;;;;;;;;;;5073075;28;20486;-64
2022/07/12 08:20:06;;;;;;;15.10;4.20;;;;;;;;;;5072778;28;20519;-64
2022/07/12 08:22:33;;;;;;;4.10;3.63;;;;;;;;;;5072639;28;20963;-65
2022/07/12 08:25:01;;;;;;;4.10;2.87;;;;;;;;;;5072957;28;20476;-65
2022/07/12 08:27:28;;;;;;;4.10;3.70;;;;;;;;;;5072538;28;20479;-64
2022/07/12 08:29:57;;;;;;;4.00;2.53;;;;;;;;;;5072940;28;20543;-65
2022/07/12 08:32:24;;;;;;;3.10;2.77;;;;;;;;;;5073461;28;20872;-65
2022/07/12 08:34:51;;;;;;;2.57;2.37;;;;;;;;;;5074314;28;20544;-65
2022/07/12 08:37:18;;;;;;;2.13;2.03;;;;;;;;;;5076730;28;20440;-65
2022/07/12 08:39:45;;;;;;;3.40;2.47;;;;;;;;;;5076727;28;20519;-64
2022/07/12 08:42:16;;;;;;;2.47;2.27;;;;;;;;;;5076360;28;20440;-64
2022/07/12 08:44:43;;;;;;;2.53;2.20;;;;;;;;;;5076138;28;20440;-64
2022/07/12 08:47:12;;;;;;;2.30;2.20;;;;;;;;;;5076413;28;20447;-64
2022/07/12 08:49:39;;;;;;;2.67;2.47;;;;;;;;;;5075706;28;20563;-64
2022/07/12 08:52:26;;;;;;;2.30;2.17;;;;;;;;;;5076277;28;20466;-64
2022/07/12 08:54:53;;;;;;;2.13;2.03;;;;;;;;;;5075850;28;20452;-64
2022/07/12 08:57:30;;;;;;;2.07;1.97;;;;;;;;;;5075839;28;20523;-64
2022/07/12 09:00:00;;;;;;;1.97;1.87;;;;;;;;;;5076431;28;20490;-64
2022/07/12 09:02:29;;;;;;;2.93;2.10;;;;;;;;;;5076207;28;20433;-64
2022/07/12 09:05:07;;;;;;;1.70;1.60;;;;;;;;;;5075658;28;20474;-64
2022/07/12 09:07:36;;;;;;;2.37;1.90;;;;;;;;;;5076157;28;20429;-64
2022/07/12 09:10:04;;;;;;;2.90;1.87;;;;;;;;;;5075925;28;20490;-64
2022/07/12 09:12:31;;;;;;;2.13;1.60;;;;;;;;;;5075783;28;20444;-64
2022/07/12 09:15:11;;;;;;;1.67;1.30;;;;;;;;;;5075611;28;20478;-64
2022/07/12 09:17:40;;;;;;;1.60;1.50;;;;;;;;;;5076123;28;20493;-64
2022/07/12 09:20:10;;;;;;;1.80;1.70;;;;;;;;;;5075924;28;20782;-64
2022/07/12 09:22:38;;;;;;;5.50;2.13;;;;;;;;;;5075740;28;20933;-65
2022/07/12 09:25:17;;;;;;;1.73;1.63;;;;;;;;;;5075184;28;20535;-64
2022/07/12 09:27:49;;;;;;;2.00;1.87;;;;;;;;;;5075804;28;20433;-64
2022/07/12 09:30:16;;;;;;;6.43;2.00;;;;;;;;;;5075641;28;20429;-64
2022/07/12 09:38:30;;;;;;;2.27;1.40;;;;;;;;;;5038938;28;20429;-64
2022/07/12 09:40:57;;;;;;;1.50;1.40;;;;;;;;;;5074798;28;20440;-64
2022/07/12 09:43:25;;;;;;;1.50;1.40;;;;;;;;;;5074825;28;20995;-65
2022/07/12 09:45:52;;;;;;;1.63;1.53;;;;;;;;;;5074479;28;20515;-64
2022/07/12 09:48:22;;;;;;;2.33;1.47;;;;;;;;;;5075294;28;20480;-64
2022/07/12 09:50:50;;;;;;;8.00;1.87;;;;;;;;;;5075127;28;20441;-64
2022/07/12 09:53:21;;;;;;;2.53;2.33;;;;;;;;;;5075113;28;20529;-64
2022/07/12 09:55:50;;;;;;;2.20;2.10;;;;;;;;;;5074794;28;20445;-64
2022/07/12 09:58:20;;;;;;;7.80;6.93;;;;;;;;;;5074933;28;20447;-65
2022/07/12 10:00:48;;;;;;;1.87;1.77;;;;;;;;;;5074487;28;20484;-64
2022/07/12 10:03:15;;;;;;;2.23;1.97;;;;;;;;;;5075317;28;20491;-64
2022/07/12 10:05:44;;;;;;;2.00;1.90;;;;;;;;;;5074361;28;21219;-64
2022/07/12 10:08:11;;;;;;;1.90;1.80;;;;;;;;;;5074301;28;20449;-64
2022/07/12 10:10:38;;;;;;;1.63;1.53;;;;;;;;;;5074546;28;20442;-64
2022/07/12 10:13:06;;;;;;;1.70;1.60;;;;;;;;;;5074385;28;20453;-64
2022/07/12 10:15:34;;;;;;;2.80;1.67;;;;;;;;;;5074643;28;20544;-64
2022/07/12 10:18:01;;;;;;;1.90;1.80;;;;;;;;;;5074454;28;20528;-64
2022/07/12 10:20:29;;;;;;;1.97;1.87;;;;;;;;;;5074068;28;20542;-65
2022/07/12 10:23:17;;;;;;;2.40;1.57;;;;;;;;;;5074473;28;20457;-65
2022/07/12 10:25:45;;;;;;;1.60;1.50;;;;;;;;;;5074483;28;20550;-65
2022/07/12 10:28:12;;;;;;;1.60;1.50;;;;;;;;;;5074428;28;21014;-64
2022/07/12 10:30:43;;;;;;;2.20;1.53;;;;;;;;;;5074666;28;20844;-65
2022/07/12 10:33:17;;;;;;;2.20;1.20;;;;;;;;;;5074249;28;20905;-65
2022/07/12 10:35:59;;;;;;;3.43;1.20;;;;;;;;;;5074321;28;20432;-65
2022/07/12 10:38:28;;;;;;;4.00;1.47;;;;;;;;;;5074521;28;20451;-65
2022/07/12 10:40:55;;;;;;;1.77;1.67;;;;;;;;;;5073770;28;20966;-64
2022/07/12 10:44:04;;;;;;;1.80;1.70;;;;;;;;;;5074069;28;20523;-64
2022/07/12 10:46:23;;;;;;;8.43;1.77;;;;;;;;;;5073440;28;20436;-64
2022/07/12 10:48:51;;;;;;;1.50;1.40;;;;;;;;;;5074018;28;20478;-65
2022/07/12 10:51:19;;;;;;;1.50;1.40;;;;;;;;;;5073857;28;20534;-65
2022/07/12 10:53:50;;;;;;;5.73;2.70;;;;;;;;;;5073910;28;20443;-65
2022/07/12 10:56:18;;;;;;;1.47;1.37;;;;;;;;;;5074048;28;20511;-66
2022/07/12 10:58:47;;;;;;;2.00;1.43;;;;;;;;;;5073347;28;20459;-66
2022/07/12 11:01:15;;;;;;;1.73;1.23;;;;;;;;;;5073507;28;20437;-64
2022/07/12 11:03:44;;;;;;;1.47;1.10;;;;;;;;;;5073905;28;20530;-64
2022/07/12 11:06:11;;;;;;;1.20;1.10;;;;;;;;;;5073466;28;20480;-65
2022/07/12 11:08:53;;;;;;;1.30;1.20;;;;;;;;;;5073994;28;20566;-63
2022/07/12 11:11:21;;;;;;;1.70;1.40;;;;;;;;;;5074343;28;20847;-65
2022/07/12 11:13:49;;;;;;;3.03;1.33;;;;;;;;;;5073537;28;20517;-66
2022/07/12 11:16:16;;;;;;;2.30;1.73;;;;;;;;;;5073850;28;20450;-64
2022/07/12 11:18:45;;;;;;;1.83;1.70;;;;;;;;;;5074285;28;20494;-64
2022/07/12 11:21:24;;;;;;;3.20;1.20;;;;;;;;;;5073572;28;20476;-66
2022/07/12 11:23:54;;;;;;;2.37;1.70;;;;;;;;;;5073760;28;20429;-65
2022/07/12 11:26:24;;;;;;;2.20;1.80;;;;;;;;;;5073098;28;20447;-65
2022/07/12 11:28:51;;;;;;;1.67;1.20;;;;;;;;;;5073874;28;20832;-66
2022/07/12 11:31:21;;;;;;;3.43;1.50;;;;;;;;;;5073861;28;20436;-65
2022/07/12 11:33:50;;;;;;;2.53;1.30;;;;;;;;;;5073488;28;20451;-64
2022/07/12 11:36:18;;;;;;;1.60;1.47;;;;;;;;;;5073588;28;20450;-64
2022/07/12 11:38:48;;;;;;;1.43;1.33;;;;;;;;;;5073643;28;20473;-64
2022/07/12 11:41:16;;;;;;;1.53;1.33;;;;;;;;;;5074025;28;20437;-65
2022/07/12 11:43:44;;;;;;;1.60;1.50;;;;;;;;;;5073512;28;20944;-65
2022/07/12 11:46:11;;;;;;;1.90;1.70;;;;;;;;;;5073014;28;20999;-64
2022/07/12 11:48:39;;;;;;;1.50;1.27;;;;;;;;;;5073267;28;20449;-64
2022/07/12 11:51:07;;;;;;;1.40;1.30;;;;;;;;;;5072918;28;20956;-65
2022/07/12 11:53:35;;;;;;;1.37;1.27;;;;;;;;;;5072906;28;21016;-64
2022/07/12 11:56:03;;;;;;;2.17;1.40;;;;;;;;;;5073758;28;20533;-65
2022/07/12 11:58:33;;;;;;;3.83;1.27;;;;;;;;;;5072891;28;20531;-64
2022/07/12 12:01:00;;;;;;;1.27;1.10;;;;;;;;;;5073206;28;20434;-65
2022/07/12 12:03:28;;;;;;;1.30;1.20;;;;;;;;;;5073159;28;20862;-63
2022/07/12 12:05:55;;;;;;;1.30;1.20;;;;;;;;;;5072872;28;20504;-64
2022/07/12 12:08:23;;;;;;;1.40;1.30;;;;;;;;;;5073761;28;20517;-63
2022/07/12 12:10:54;;;;;;;2.03;1.30;;;;;;;;;;5076945;28;20576;-64
2022/07/12 12:13:22;;;;;;;1.50;1.40;;;;;;;;;;5077004;28;20495;-64
2022/07/12 12:15:54;;;;;;;1.47;1.37;;;;;;;;;;5076746;28;21019;-64
2022/07/12 12:18:31;;;;;;;1.30;1.20;;;;;;;;;;5076455;28;20451;-64
2022/07/12 12:21:00;;;;;;;1.13;1.03;;;;;;;;;;5076450;28;20533;-64
2022/07/12 12:23:27;;;;;;;2.10;1.17;;;;;;;;;;5076680;28;20447;-64
2022/07/12 12:26:09;;;;;;;1.40;1.20;;;;;;;;;;5076763;28;20538;-64
2022/07/12 12:28:43;;;;;;;2.13;1.70;;;;;;;;;;5076542;28;20431;-64
2022/07/12 12:31:13;;;;;;;2.07;1.03;;;;;;;;;;5076481;28;20450;-64
2022/07/12 12:33:40;;;;;;;1.10;1.00;;;;;;;;;;5076715;28;20443;-64
2022/07/12 12:36:29;;;;;;;1.83;1.57;;;;;;;;;;5077088;28;20449;-64
2022/07/12 12:38:57;;;;;;;1.30;1.20;;;;;;;;;;5073167;28;20543;-64
2022/07/12 12:41:25;;;;;;;1.33;1.00;;;;;;;;;;5076404;28;20443;-63
2022/07/12 12:43:59;;;;;;;1.00;1.00;;;;;;;;;;5076076;28;20454;-64
2022/07/12 12:46:47;;;;;;;2.10;1.10;;;;;;;;;;5076033;28;20448;-64
2022/07/12 12:49:14;;;;;;;1.20;1.10;;;;;;;;;;5076181;28;20472;-64
2022/07/12 12:51:54;;;;;;;1.10;1.00;;;;;;;;;;5076042;28;20483;-66
2022/07/12 12:54:35;;;;;;;1.10;1.00;;;;;;;;;;5076161;28;20538;-64
2022/07/12 12:57:02;;;;;;;1.83;1.10;;;;;;;;;;5076012;28;20519;-64
2022/07/12 12:59:30;;;;;;;3.33;1.10;;;;;;;;;;5076202;28;20450;-65
2022/07/12 13:01:58;;;;;;;2.17;0.83;;;;;;;;;;5075632;28;20490;-66
2022/07/12 13:04:29;;;;;;;1.40;1.10;;;;;;;;;;5076268;28;20465;-65
2022/07/12 13:06:56;;;;;;;1.10;1.00;;;;;;;;;;5075564;28;20451;-65
2022/07/12 13:09:23;;;;;;;3.90;1.20;;;;;;;;;;5075583;28;20483;-64
2022/07/12 13:11:51;;;;;;;1.10;1.00;;;;;;;;;;5075674;28;20921;-64
2022/07/12 13:14:18;;;;;;;1.27;1.10;;;;;;;;;;5075636;28;20476;-64
2022/07/12 13:16:45;;;;;;;1.00;1.00;;;;;;;;;;5075932;28;20502;-64
2022/07/12 13:19:14;;;;;;;1.10;1.00;;;;;;;;;;5075740;28;20851;-63
2022/07/12 13:21:41;;;;;;;1.10;1.00;;;;;;;;;;5074674;28;20447;-65
2022/07/12 13:24:08;;;;;;;1.27;1.17;;;;;;;;;;5072153;28;20930;-65
2022/07/12 13:26:37;;;;;;;1.10;1.00;;;;;;;;;;5074572;28;20419;-65
2022/07/12 13:29:04;;;;;;;1.10;1.00;;;;;;;;;;5074809;28;20498;-64
2022/07/12 13:31:32;;;;;;;1.47;1.37;;;;;;;;;;5075246;28;20546;-64
2022/07/12 13:33:59;;;;;;;1.43;1.10;;;;;;;;;;5074799;28;20966;-64
2022/07/12 13:36:27;;;;;;;1.23;1.13;;;;;;;;;;5075206;28;20440;-64
2022/07/12 13:38:55;;;;;;;1.30;1.20;;;;;;;;;;5075206;28;20442;-65
2022/07/12 13:41:22;;;;;;;1.40;1.10;;;;;;;;;;5074929;28;20424;-65
2022/07/12 13:43:49;;;;;;;1.10;1.00;;;;;;;;;;5075253;28;20506;-64
2022/07/12 13:46:16;;;;;;;3.00;1.40;;;;;;;;;;5074690;28;20533;-64
2022/07/12 13:48:45;;;;;;;1.10;1.00;;;;;;;;;;5075200;28;20441;-70
2022/07/12 13:51:15;;;;;;;1.40;0.87;;;;;;;;;;5075160;28;20515;-65
2022/07/12 13:53:43;;;;;;;1.70;1.07;;;;;;;;;;5086536;28;20424;-65
2022/07/12 13:56:11;;;;;;;1.00;1.00;;;;;;;;;;5095403;28;20443;-65
2022/07/12 13:58:38;;;;;;;2.50;1.30;;;;;;;;;;5095335;28;20537;-65
2022/07/12 14:01:06;;;;;;;6.80;5.77;;;;;;;;;;5095391;28;20448;-66
2022/07/12 14:03:33;;;;;;;1.37;1.10;;;;;;;;;;5094610;28;20463;-65
2022/07/12 14:06:00;;;;;;;1.17;1.03;;;;;;;;;;5095437;28;20499;-66
2022/07/12 14:08:28;;;;;;;1.40;1.00;;;;;;;;;;5094729;28;20922;-66
2022/07/12 14:10:56;;;;;;;0.93;0.93;;;;;;;;;;5094900;28;20489;-65
2022/07/12 14:13:24;;;;;;;1.13;1.03;;;;;;;;;;5094373;28;20839;-65
2022/07/12 14:15:51;;;;;;;1.03;1.00;;;;;;;;;;5094578;28;20526;-65
2022/07/12 14:18:18;;;;;;;3.63;1.20;;;;;;;;;;5094264;28;20529;-66
2022/07/12 14:20:46;;;;;;;1.43;1.10;;;;;;;;;;5094681;28;20443;-66
2022/07/12 14:23:14;;;;;;;1.43;1.20;;;;;;;;;;5094408;28;20442;-66
2022/07/12 14:25:41;;;;;;;1.37;1.27;;;;;;;;;;5094742;28;20864;-66
2022/07/12 14:28:09;;;;;;;1.40;1.20;;;;;;;;;;5094202;28;20969;-71
2022/07/12 14:30:37;;;;;;;2.00;1.13;;;;;;;;;;5094753;28;20485;-64
2022/07/12 14:33:04;;;;;;;1.40;1.00;;;;;;;;;;5093421;28;20450;-64
2022/07/12 14:35:31;;;;;;;1.23;1.00;;;;;;;;;;5094431;28;20449;-65
2022/07/12 14:37:58;;;;;;;1.60;1.17;;;;;;;;;;5094566;28;20482;-65
2022/07/12 14:40:25;;;;;;;1.40;1.30;;;;;;;;;;5094083;28;20455;-65
2022/07/12 14:42:56;;;;;;;2.93;1.10;;;;;;;;;;5094557;28;20524;-66
2022/07/12 14:45:25;;;;;;;1.30;1.20;;;;;;;;;;5093952;28;20519;-66
2022/07/12 14:47:52;;;;;;;1.10;1.00;;;;;;;;;;5078434;28;20432;-67
2022/07/12 14:50:20;;;;;;;1.20;1.10;;;;;;;;;;5072953;28;20469;-68
2022/07/12 14:52:47;;;;;;;1.40;1.20;;;;;;;;;;5074338;28;20442;-67
2022/07/12 14:55:14;;;;;;;1.57;1.20;;;;;;;;;;5073300;28;20426;-66
2022/07/12 14:57:41;;;;;;;0.97;0.97;;;;;;;;;;5073038;28;20759;-66
2022/07/12 15:00:10;;;;;;;1.37;1.13;;;;;;;;;;5073854;28;20505;-68
2022/07/12 15:02:39;;;;;;;1.67;1.13;;;;;;;;;;5073385;28;20440;-66